Time;durP1;ratioP1;P1;durP2;ratioP2;P2;SDS_P1;SDS_P2;PMS_P1;PMS_P2;Temp;Humidity;BMP_temperature;BMP_pressure;BME280_temperature;BME280_humidity;BME280_pressure;Samples;Min_cycle;Max_cycle;Signal;HPM_P1;HPM_P2
2023/02/13 00:00:32;;;;;;;38.33;14.90;;;2.60;99.90;;;;;;4932817;29;20213;-82
2023/02/13 00:02:59;;;;;;;37.70;14.30;;;2.60;99.90;;;;;;4934618;29;20218;-82
2023/02/13 00:05:25;;;;;;;30.90;15.57;;;2.60;99.90;;;;;;4926454;29;20205;-84
2023/02/13 00:07:52;;;;;;;42.07;15.17;;;2.60;99.90;;;;;;4932597;29;20202;-83
2023/02/13 00:10:19;;;;;;;30.20;15.83;;;2.50;99.90;;;;;;4926511;29;20216;-84
2023/02/13 00:12:46;;;;;;;26.87;14.70;;;2.60;99.90;;;;;;4932551;29;20611;-81
2023/02/13 00:15:14;;;;;;;34.77;16.03;;;2.70;99.90;;;;;;4930812;29;20216;-81
2023/02/13 00:17:41;;;;;;;28.23;15.00;;;2.60;99.90;;;;;;4926533;29;20736;-81
2023/02/13 00:20:10;;;;;;;36.43;15.67;;;2.60;99.90;;;;;;4926700;29;20220;-81
2023/02/13 00:22:38;;;;;;;37.33;15.87;;;2.70;99.90;;;;;;4925013;29;20708;-81
2023/02/13 00:25:05;;;;;;;30.53;15.13;;;2.70;99.90;;;;;;4928613;29;20208;-82
2023/02/13 00:27:32;;;;;;;39.23;15.63;;;2.70;99.90;;;;;;4926310;29;20677;-83
2023/02/13 00:29:59;;;;;;;29.30;14.37;;;2.70;99.90;;;;;;4930993;29;20198;-82
2023/02/13 00:32:27;;;;;;;40.90;14.37;;;2.70;99.90;;;;;;4928836;29;20206;-84
2023/02/13 00:34:55;;;;;;;26.50;14.23;;;2.60;99.90;;;;;;4926878;29;20574;-81
2023/02/13 00:37:22;;;;;;;34.87;15.60;;;2.70;99.90;;;;;;4927658;29;20206;-81
2023/02/13 00:39:49;;;;;;;38.97;15.83;;;2.80;99.90;;;;;;4927867;29;20211;-83
2023/02/13 00:42:15;;;;;;;33.83;15.53;;;2.80;99.90;;;;;;4925654;29;20225;-84
2023/02/13 00:44:42;;;;;;;50.83;16.07;;;2.80;99.90;;;;;;4925611;29;20199;-83
2023/02/13 00:47:13;;;;;;;38.47;17.03;;;2.70;99.90;;;;;;4930506;29;20645;-82
2023/02/13 00:49:41;;;;;;;31.00;15.90;;;2.70;99.90;;;;;;4930360;29;20232;-82
2023/02/13 00:52:08;;;;;;;40.17;16.87;;;2.80;99.90;;;;;;4908180;29;20210;-82
2023/02/13 00:54:35;;;;;;;32.13;15.87;;;2.90;99.90;;;;;;4929796;29;20810;-82
2023/02/13 00:57:02;;;;;;;42.07;16.33;;;2.90;99.90;;;;;;4927794;29;20199;-82
2023/02/13 00:59:29;;;;;;;33.67;15.73;;;3.00;99.90;;;;;;4929649;29;20202;-82
2023/02/13 01:01:55;;;;;;;42.80;16.73;;;3.10;99.90;;;;;;4925309;29;20261;-81
2023/02/13 01:04:22;;;;;;;30.60;16.63;;;3.10;99.90;;;;;;4929269;29;20206;-81
2023/02/13 01:06:50;;;;;;;33.00;15.77;;;3.10;99.90;;;;;;4925776;29;20730;-82
2023/02/13 01:09:17;;;;;;;38.90;16.10;;;3.00;99.90;;;;;;4926800;29;20205;-81
2023/02/13 01:11:44;;;;;;;34.67;16.60;;;3.00;99.90;;;;;;4929409;29;20673;-82
2023/02/13 01:14:10;;;;;;;34.07;16.97;;;2.90;99.90;;;;;;4932472;29;20209;-81
2023/02/13 01:16:37;;;;;;;41.43;17.03;;;2.90;99.90;;;;;;4927981;29;20206;-82
2023/02/13 01:19:05;;;;;;;40.40;16.30;;;2.90;99.90;;;;;;4925785;29;20198;-81
2023/02/13 01:21:32;;;;;;;39.37;16.60;;;2.90;99.90;;;;;;4928233;29;20215;-81
2023/02/13 01:24:03;;;;;;;38.10;15.53;;;2.90;99.90;;;;;;4931979;29;20210;-80
2023/02/13 01:26:30;;;;;;;44.03;16.73;;;3.00;99.90;;;;;;4924200;29;20202;-82
2023/02/13 01:28:57;;;;;;;39.40;17.73;;;2.90;99.90;;;;;;4931320;29;20217;-82
2023/02/13 01:31:24;;;;;;;36.57;17.20;;;2.90;99.90;;;;;;4928505;29;20214;-81
2023/02/13 01:33:51;;;;;;;29.67;17.40;;;2.90;99.90;;;;;;4929106;29;20202;-81
2023/02/13 01:36:18;;;;;;;36.67;17.60;;;2.90;99.90;;;;;;4927962;29;20209;-80
2023/02/13 01:38:45;;;;;;;25.97;15.23;;;2.90;99.90;;;;;;4927086;29;20207;-81
2023/02/13 01:41:14;;;;;;;28.30;15.90;;;2.90;99.90;;;;;;4925348;29;20198;-81
2023/02/13 01:43:50;;;;;;;45.57;16.80;;;2.90;99.90;;;;;;4928803;29;20308;-80
2023/02/13 01:46:21;;;;;;;36.10;16.13;;;2.80;99.90;;;;;;4924673;29;20572;-81
2023/02/13 01:48:51;;;;;;;30.73;15.37;;;2.90;99.90;;;;;;4925123;29;20209;-80
2023/02/13 01:51:22;;;;;;;34.47;16.47;;;2.90;99.90;;;;;;4929211;29;20202;-81
2023/02/13 01:53:53;;;;;;;43.53;16.10;;;2.90;99.90;;;;;;4930853;29;20225;-79
2023/02/13 01:56:25;;;;;;;25.50;15.53;;;3.00;99.90;;;;;;4927040;29;20245;-85
2023/02/13 01:58:56;;;;;;;27.77;15.27;;;2.90;99.90;;;;;;4920863;29;20221;-80
2023/02/13 02:01:25;;;;;;;30.30;15.23;;;2.90;99.90;;;;;;4920478;29;20575;-80
2023/02/13 02:03:58;;;;;;;34.77;16.77;;;2.90;99.90;;;;;;4927790;29;20455;-82
2023/02/13 02:06:28;;;;;;;41.70;16.83;;;2.90;99.90;;;;;;4926828;29;20203;-82
2023/02/13 02:08:57;;;;;;;48.83;15.87;;;2.80;99.90;;;;;;4923286;29;20209;-84
2023/02/13 02:11:31;;;;;;;31.33;15.50;;;2.80;99.90;;;;;;4925593;29;20305;-81
2023/02/13 02:14:00;;;;;;;29.33;15.83;;;2.80;99.90;;;;;;4929111;29;20213;-82
2023/02/13 02:16:26;;;;;;;32.97;16.33;;;2.80;99.90;;;;;;4931339;29;20612;-82
2023/02/13 02:18:53;;;;;;;25.50;15.20;;;2.80;99.90;;;;;;4931903;29;20292;-84
2023/02/13 02:21:55;;;;;;;28.73;14.87;;;2.80;99.90;;;;;;4925654;29;20515;-85
2023/02/13 02:24:55;;;;;;;22.77;14.23;;;2.80;99.90;;;;;;4926154;29;20201;-85
2023/02/13 02:27:50;;;;;;;22.80;14.47;;;2.80;99.90;;;;;;4929043;29;20202;-83
2023/02/13 02:30:55;;;;;;;26.97;15.10;;;2.80;99.90;;;;;;4926257;29;20202;-81
2023/02/13 02:33:30;;;;;;;26.33;14.07;;;2.80;99.90;;;;;;4928814;29;20572;-82
2023/02/13 02:36:10;;;;;;;26.03;15.07;;;2.80;99.90;;;;;;4911216;29;20197;-81
2023/02/13 02:38:51;;;;;;;25.57;14.73;;;2.80;99.90;;;;;;4926093;29;20201;-83
2023/02/13 02:41:41;;;;;;;22.13;13.77;;;2.80;99.90;;;;;;4933760;29;20198;-83
2023/02/13 02:44:17;;;;;;;25.67;14.30;;;2.80;99.90;;;;;;4927898;29;20221;-86
2023/02/13 02:50:00;;;;;;;23.57;14.37;;;2.80;99.90;;;;;;4931171;29;20216;-82
2023/02/13 02:52:34;;;;;;;21.90;13.73;;;2.70;99.90;;;;;;4934303;29;20221;-81
2023/02/13 02:55:07;;;;;;;19.50;12.43;;;2.70;99.90;;;;;;4929127;29;20202;-86
2023/02/13 03:06:13;;;;;;;17.87;11.43;;;2.80;99.90;;;;;;4930031;29;20261;-82
2023/02/13 03:14:18;;;;;;;22.17;12.50;;;2.60;99.90;;;;;;4931313;29;20844;-82
2023/02/13 03:22:37;;;;;;;18.20;11.80;;;2.60;99.90;;;;;;4921068;29;20237;-82
2023/02/13 03:25:11;;;;;;;19.70;12.20;;;2.60;99.90;;;;;;4927207;29;20213;-82
2023/02/13 03:30:40;;;;;;;25.30;13.10;;;2.70;99.90;;;;;;4934802;29;20212;-81
2023/02/13 03:33:23;;;;;;;19.47;12.47;;;2.60;99.90;;;;;;4926197;29;20217;-82
2023/02/13 03:38:52;;;;;;;21.27;12.63;;;2.60;99.90;;;;;;4931312;29;20213;-81
2023/02/13 03:41:24;;;;;;;26.27;13.27;;;2.60;99.90;;;;;;4928620;29;20564;-85
2023/02/13 03:44:00;;;;;;;20.17;11.57;;;2.50;99.90;;;;;;4932408;29;20248;-83
2023/02/13 03:46:31;;;;;;;17.17;11.37;;;2.60;99.90;;;;;;4929208;29;20216;-82
2023/02/13 03:51:49;;;;;;;23.57;11.30;;;2.60;99.90;;;;;;4923605;29;20796;-83
2023/02/13 03:59:48;;;;;;;17.13;11.10;;;2.40;99.90;;;;;;4894175;29;20343;-81
2023/02/13 04:02:21;;;;;;;17.97;11.77;;;2.30;99.90;;;;;;4934189;29;20198;-81
2023/02/13 04:04:54;;;;;;;14.27;10.40;;;2.30;99.90;;;;;;4916601;29;20206;-82
2023/02/13 04:07:29;;;;;;;23.70;10.00;;;2.30;99.90;;;;;;4928978;29;20879;-84
2023/02/13 04:10:01;;;;;;;15.10;9.87;;;2.30;99.90;;;;;;4927562;29;20210;-83
2023/02/13 04:12:37;;;;;;;15.73;10.03;;;2.30;99.90;;;;;;4929274;29;20202;-81
2023/02/13 04:15:10;;;;;;;18.93;10.17;;;2.20;99.90;;;;;;4921143;29;20615;-82
2023/02/13 04:17:41;;;;;;;16.43;10.37;;;2.30;99.90;;;;;;4930007;29;20209;-81
2023/02/13 04:20:09;;;;;;;14.53;10.10;;;2.40;99.90;;;;;;4928399;29;20194;-81
2023/02/13 04:22:42;;;;;;;16.93;10.20;;;2.30;99.90;;;;;;4926765;29;20226;-81
2023/02/13 04:25:11;;;;;;;14.63;10.40;;;2.20;99.90;;;;;;4932882;29;20205;-82
2023/02/13 04:27:38;;;;;;;17.50;10.97;;;2.30;99.90;;;;;;4929113;29;20194;-81
2023/02/13 04:30:06;;;;;;;21.77;10.97;;;2.30;99.90;;;;;;4929474;29;20210;-86
2023/02/13 04:32:33;;;;;;;15.73;10.77;;;2.30;99.90;;;;;;4926441;29;20359;-81
2023/02/13 04:34:59;;;;;;;17.37;10.67;;;2.20;99.90;;;;;;4931808;29;20213;-81
2023/02/13 04:37:26;;;;;;;24.33;11.17;;;2.20;99.90;;;;;;4925848;29;20213;-82
2023/02/13 04:39:53;;;;;;;21.80;10.63;;;2.30;99.90;;;;;;4934003;29;20213;-83
2023/02/13 04:42:21;;;;;;;14.77;11.07;;;2.30;99.90;;;;;;4931063;29;20734;-82
2023/02/13 04:44:48;;;;;;;17.40;11.10;;;2.30;99.90;;;;;;4930629;29;20217;-81
2023/02/13 04:47:15;;;;;;;21.23;11.97;;;2.40;99.90;;;;;;4930168;29;20214;-81
2023/02/13 04:49:42;;;;;;;21.87;10.77;;;2.30;99.90;;;;;;4930274;29;20206;-81
2023/02/13 04:52:09;;;;;;;17.60;12.00;;;2.30;99.90;;;;;;4929049;29;20209;-84
2023/02/13 04:54:36;;;;;;;17.07;11.20;;;2.30;99.90;;;;;;4932353;29;20213;-82
2023/02/13 04:57:03;;;;;;;17.93;12.47;;;2.30;99.90;;;;;;4930610;29;20201;-82
2023/02/13 04:59:31;;;;;;;17.63;11.87;;;2.40;99.90;;;;;;4929954;29;20199;-82
2023/02/13 05:01:59;;;;;;;16.57;11.27;;;2.30;99.90;;;;;;4928423;29;20591;-81
2023/02/13 05:04:27;;;;;;;16.63;11.43;;;2.30;99.90;;;;;;4930031;29;20237;-85
2023/02/13 05:06:54;;;;;;;22.33;11.83;;;2.40;99.90;;;;;;4925196;29;20568;-83
2023/02/13 05:09:21;;;;;;;18.07;12.13;;;2.30;99.90;;;;;;4927814;29;20229;-82
2023/02/13 05:11:50;;;;;;;23.30;12.83;;;2.30;99.90;;;;;;4915385;29;20213;-83
2023/02/13 05:14:17;;;;;;;19.13;12.43;;;2.30;99.90;;;;;;4925710;29;20213;-81
2023/02/13 05:16:45;;;;;;;22.03;13.00;;;2.20;99.90;;;;;;4930746;29;20578;-83
2023/02/13 05:19:12;;;;;;;23.20;12.63;;;2.10;99.90;;;;;;4929312;29;20329;-81
2023/02/13 05:24:23;;;;;;;19.97;12.20;;;2.10;99.90;;;;;;4921860;29;20225;-82
2023/02/13 05:26:50;;;;;;;19.37;13.03;;;2.00;99.90;;;;;;4925769;29;20210;-82
2023/02/13 05:29:21;;;;;;;21.23;12.77;;;2.10;99.90;;;;;;4928581;29;20209;-81
2023/02/13 05:31:51;;;;;;;19.60;11.63;;;2.10;99.90;;;;;;4925800;29;20210;-82
2023/02/13 05:34:19;;;;;;;17.13;12.17;;;2.10;99.90;;;;;;4928953;29;20198;-83
2023/02/13 05:36:46;;;;;;;19.07;12.60;;;2.20;99.90;;;;;;4929212;29;20213;-81
2023/02/13 05:39:14;;;;;;;19.17;12.40;;;2.20;99.90;;;;;;4912966;29;20241;-81
2023/02/13 05:41:41;;;;;;;18.13;12.63;;;2.20;99.90;;;;;;4924631;29;20253;-82
2023/02/13 05:44:08;;;;;;;20.23;13.20;;;2.10;99.90;;;;;;4927816;29;20232;-82
2023/02/13 05:46:34;;;;;;;19.90;13.27;;;2.00;99.90;;;;;;4928694;29;20198;-82
2023/02/13 05:49:03;;;;;;;20.13;13.73;;;2.00;99.90;;;;;;4928485;29;20197;-81
2023/02/13 05:51:30;;;;;;;22.33;13.70;;;2.10;99.90;;;;;;4926526;29;20206;-82
2023/02/13 05:53:57;;;;;;;22.70;14.00;;;2.10;99.90;;;;;;4932402;29;20225;-84
2023/02/13 05:56:24;;;;;;;22.40;13.90;;;2.10;99.90;;;;;;4925793;29;20198;-83
2023/02/13 05:58:52;;;;;;;31.97;13.47;;;2.20;99.90;;;;;;4933087;29;20222;-83
2023/02/13 06:01:19;;;;;;;21.13;13.43;;;2.20;99.90;;;;;;4933817;29;20261;-84
2023/02/13 06:03:46;;;;;;;20.03;12.60;;;2.20;99.90;;;;;;4930538;29;20230;-83
2023/02/13 06:06:14;;;;;;;19.30;12.87;;;2.10;99.90;;;;;;4913430;29;20221;-83
2023/02/13 06:08:41;;;;;;;21.47;13.50;;;2.10;99.90;;;;;;4927484;29;20588;-84
2023/02/13 06:11:09;;;;;;;20.90;13.20;;;2.10;99.90;;;;;;4933443;29;20202;-86
2023/02/13 06:13:39;;;;;;;23.73;15.10;;;2.00;99.90;;;;;;4925715;29;20713;-83
2023/02/13 06:16:06;;;;;;;25.83;14.80;;;1.90;99.90;;;;;;4930960;29;20631;-84
2023/02/13 06:18:33;;;;;;;28.80;15.23;;;1.70;99.90;;;;;;4935001;29;20201;-81
2023/02/13 06:21:00;;;;;;;22.30;14.87;;;1.60;99.90;;;;;;4937383;29;20221;-81
2023/02/13 06:23:28;;;;;;;27.73;15.07;;;1.60;99.90;;;;;;4930717;29;20229;-81
2023/02/13 06:25:55;;;;;;;21.20;14.03;;;1.80;99.90;;;;;;4930808;29;20206;-81
2023/02/13 06:28:21;;;;;;;37.50;15.07;;;1.90;99.90;;;;;;4935237;29;20209;-82
2023/02/13 06:30:48;;;;;;;27.07;15.50;;;2.10;99.90;;;;;;4935831;29;20202;-81
2023/02/13 06:33:15;;;;;;;25.30;15.30;;;2.00;99.90;;;;;;4933768;29;20214;-84
2023/02/13 06:35:42;;;;;;;20.80;14.67;;;1.90;99.90;;;;;;4934070;29;20657;-79
2023/02/13 06:38:09;;;;;;;24.50;15.47;;;1.80;99.90;;;;;;4927800;29;20335;-80
2023/02/13 06:40:37;;;;;;;24.73;15.77;;;1.80;99.90;;;;;;4925499;29;20674;-82
2023/02/13 06:43:03;;;;;;;23.10;16.20;;;1.90;99.90;;;;;;4935340;29;20198;-81
2023/02/13 06:45:30;;;;;;;28.17;15.80;;;2.00;99.90;;;;;;4931667;29;20737;-80
2023/02/13 06:47:57;;;;;;;25.17;16.63;;;2.00;99.90;;;;;;4934706;29;20650;-80
2023/02/13 06:50:24;;;;;;;25.83;16.37;;;1.90;99.90;;;;;;4932556;29;20659;-84
2023/02/13 06:52:52;;;;;;;27.40;16.60;;;1.90;99.90;;;;;;4924235;29;20217;-85
2023/02/13 06:55:19;;;;;;;23.40;15.57;;;2.00;99.90;;;;;;4935242;29;20213;-85
2023/02/13 06:57:48;;;;;;;23.20;15.50;;;2.10;99.90;;;;;;4935983;29;20225;-85
2023/02/13 07:00:17;;;;;;;22.60;14.83;;;2.30;99.90;;;;;;4924743;29;20226;-85
2023/02/13 07:02:45;;;;;;;24.77;15.90;;;2.30;99.90;;;;;;4932440;29;20229;-84
2023/02/13 07:05:12;;;;;;;27.73;16.97;;;2.40;99.90;;;;;;4934504;29;20237;-83
2023/02/13 07:07:41;;;;;;;24.33;16.17;;;2.20;99.90;;;;;;4930307;29;20205;-82
2023/02/13 07:10:09;;;;;;;27.63;17.20;;;2.20;99.90;;;;;;4930304;29;20742;-83
2023/02/13 07:12:36;;;;;;;32.07;16.27;;;2.30;99.90;;;;;;4929929;29;20210;-83
2023/02/13 07:15:06;;;;;;;29.73;15.30;;;2.10;99.90;;;;;;4923864;29;20205;-83
2023/02/13 07:17:33;;;;;;;27.20;16.77;;;2.10;99.90;;;;;;4923127;29;20680;-83
2023/02/13 07:20:00;;;;;;;24.40;16.60;;;2.00;99.90;;;;;;4933274;29;20721;-83
2023/02/13 07:22:27;;;;;;;31.67;16.43;;;2.00;99.90;;;;;;4927171;29;20215;-84
2023/02/13 07:24:54;;;;;;;33.97;17.10;;;1.90;99.90;;;;;;4926092;29;20218;-83
2023/02/13 07:27:21;;;;;;;31.87;17.20;;;1.80;99.90;;;;;;4932572;29;20206;-84
2023/02/13 07:29:48;;;;;;;29.00;17.10;;;1.70;99.90;;;;;;4930045;29;20209;-83
2023/02/13 07:32:16;;;;;;;28.40;17.90;;;1.70;99.90;;;;;;4928472;29;20205;-84
2023/02/13 07:34:43;;;;;;;27.53;17.83;;;1.80;99.90;;;;;;4912303;29;20205;-84
2023/02/13 07:37:10;;;;;;;28.23;16.87;;;2.00;99.90;;;;;;4925185;29;20206;-83
2023/02/13 07:39:38;;;;;;;24.33;16.17;;;2.10;99.90;;;;;;4934119;29;20205;-84
2023/02/13 07:42:05;;;;;;;23.97;15.93;;;2.30;99.90;;;;;;4926540;29;20205;-83
2023/02/13 07:44:32;;;;;;;22.37;14.57;;;2.50;99.90;;;;;;4933830;29;20285;-83
2023/02/13 07:46:59;;;;;;;24.57;15.10;;;2.50;99.90;;;;;;4933310;29;20209;-84
2023/02/13 07:49:28;;;;;;;23.57;15.00;;;2.40;99.90;;;;;;4934478;29;20198;-84
2023/02/13 07:51:57;;;;;;;22.97;15.33;;;2.40;99.90;;;;;;4929762;29;20213;-83
2023/02/13 07:54:24;;;;;;;24.77;15.50;;;2.40;99.90;;;;;;4924568;29;20266;-83
2023/02/13 07:56:51;;;;;;;23.10;15.03;;;2.40;99.90;;;;;;4931658;29;20206;-83
2023/02/13 07:59:17;;;;;;;22.57;15.37;;;2.60;99.90;;;;;;4914343;29;20616;-84
2023/02/13 08:01:45;;;;;;;22.43;14.97;;;2.60;99.70;;;;;;4932809;29;20207;-84
2023/02/13 08:04:11;;;;;;;27.90;15.70;;;2.70;99.80;;;;;;4929095;29;20234;-84
2023/02/13 08:06:41;;;;;;;30.97;16.67;;;2.80;99.80;;;;;;4929177;29;20214;-83
2023/02/13 08:11:58;;;;;;;25.83;16.00;;;2.70;99.80;;;;;;4921935;29;20221;-88
2023/02/13 08:14:27;;;;;;;24.60;14.50;;;2.70;99.80;;;;;;4928641;29;20222;-83
2023/02/13 08:16:54;;;;;;;24.63;14.73;;;2.70;99.80;;;;;;4929969;29;20210;-83
2023/02/13 08:19:21;;;;;;;25.67;16.10;;;2.90;99.80;;;;;;4929626;29;20206;-84
2023/02/13 08:21:49;;;;;;;23.50;15.10;;;2.90;99.50;;;;;;4926650;29;21160;-83
2023/02/13 08:24:16;;;;;;;23.43;15.33;;;3.00;99.30;;;;;;4927112;29;20239;-86
2023/02/13 08:26:43;;;;;;;24.70;15.47;;;2.90;99.20;;;;;;4912164;29;20308;-85
2023/02/13 08:29:10;;;;;;;22.77;15.17;;;2.90;99.60;;;;;;4924436;29;20222;-87
2023/02/13 08:31:37;;;;;;;29.30;16.67;;;2.90;99.50;;;;;;4925431;29;20209;-86
2023/02/13 08:34:04;;;;;;;25.30;15.57;;;2.70;99.50;;;;;;4926447;29;20210;-85
2023/02/13 08:36:31;;;;;;;24.73;16.13;;;2.70;99.80;;;;;;4906124;29;20826;-85
2023/02/13 08:38:59;;;;;;;25.73;16.30;;;2.80;99.80;;;;;;4926591;29;20210;-85
2023/02/13 08:41:26;;;;;;;23.37;15.40;;;2.80;99.80;;;;;;4932820;29;20248;-85
2023/02/13 08:43:54;;;;;;;26.00;16.60;;;2.90;99.80;;;;;;4928229;29;20223;-87
2023/02/13 08:46:21;;;;;;;22.33;15.03;;;3.10;99.50;;;;;;4928451;29;20701;-85
2023/02/13 08:48:48;;;;;;;25.50;16.00;;;3.10;98.90;;;;;;4913018;29;20212;-86
2023/02/13 08:51:15;;;;;;;25.10;15.87;;;3.00;98.70;;;;;;4909573;29;20208;-85
2023/02/13 08:53:42;;;;;;;25.83;17.03;;;3.00;99.00;;;;;;4929400;29;20257;-85
2023/02/13 08:56:11;;;;;;;26.13;16.10;;;3.00;99.30;;;;;;4929401;29;20214;-88
2023/02/13 08:58:38;;;;;;;24.03;14.60;;;3.10;99.20;;;;;;4926520;29;20226;-85
2023/02/13 09:01:06;;;;;;;24.20;15.73;;;3.10;99.10;;;;;;4912648;29;20678;-85
2023/02/13 09:03:33;;;;;;;26.40;17.07;;;3.00;98.60;;;;;;4924606;29;20210;-86
2023/02/13 09:06:00;;;;;;;24.03;16.00;;;3.00;98.60;;;;;;4922196;29;20209;-86
2023/02/13 09:08:27;;;;;;;24.50;16.47;;;2.80;99.30;;;;;;4922910;29;20203;-86
2023/02/13 09:11:00;;;;;;;24.43;16.37;;;2.70;99.40;;;;;;4926102;29;20439;-86
2023/02/13 09:13:29;;;;;;;25.30;16.00;;;2.70;99.80;;;;;;4928313;29;20214;-87
2023/02/13 09:15:59;;;;;;;26.50;16.37;;;2.80;99.80;;;;;;4926795;29;20934;-86
2023/02/13 09:18:26;;;;;;;26.17;16.67;;;2.90;99.80;;;;;;4926527;29;20228;-87
2023/02/13 09:20:59;;;;;;;25.40;16.47;;;3.00;99.70;;;;;;4927831;29;20213;-86
2023/02/13 09:23:27;;;;;;;28.53;16.57;;;3.00;99.10;;;;;;4925854;29;20199;-86
2023/02/13 09:25:54;;;;;;;26.30;17.07;;;3.20;99.10;;;;;;4922297;29;20221;-87
2023/02/13 09:28:21;;;;;;;26.57;16.60;;;3.10;98.60;;;;;;4928095;29;20198;-89
2023/02/13 09:30:49;;;;;;;27.50;17.57;;;3.10;98.80;;;;;;4923519;29;20209;-92
2023/02/13 09:33:16;;;;;;;28.53;17.70;;;3.10;98.20;;;;;;4932224;29;20201;-87
2023/02/13 09:35:43;;;;;;;27.00;16.93;;;3.00;98.70;;;;;;4928208;29;20202;-88
2023/02/13 09:38:11;;;;;;;25.23;17.03;;;2.90;98.80;;;;;;4918989;29;20235;-88
2023/02/13 09:40:45;;;;;;;30.00;17.63;;;2.90;99.80;;;;;;4945282;29;20202;-88
2023/02/13 09:43:17;;;;;;;26.80;17.50;;;2.90;99.90;;;;;;4945605;29;20197;-87
2023/02/13 09:45:46;;;;;;;26.57;17.63;;;3.10;99.80;;;;;;4927156;29;20844;-87
2023/02/13 09:48:29;;;;;;;27.03;17.00;;;3.10;99.90;;;;;;4922983;29;20198;-87
2023/02/13 09:50:56;;;;;;;26.13;17.50;;;3.10;99.80;;;;;;4924737;29;20258;-87
2023/02/13 09:53:27;;;;;;;27.57;17.57;;;3.10;99.60;;;;;;4911879;29;20218;-87
2023/02/13 09:56:02;;;;;;;27.43;17.63;;;3.30;99.10;;;;;;4925229;29;20410;-87
2023/02/13 09:58:44;;;;;;;28.40;18.20;;;3.40;98.40;;;;;;4924710;29;20218;-87
2023/02/13 10:01:26;;;;;;;27.73;17.23;;;3.40;98.60;;;;;;4927155;29;20322;-87
2023/02/13 10:04:22;;;;;;;26.97;17.13;;;3.50;98.10;;;;;;4921537;29;20209;-87
2023/02/13 10:06:55;;;;;;;27.27;17.33;;;3.50;98.10;;;;;;4894813;29;20218;-87
2023/02/13 10:09:30;;;;;;;28.17;17.83;;;3.30;97.80;;;;;;4926220;29;20246;-87
2023/02/13 10:12:18;;;;;;;27.47;17.77;;;3.20;98.50;;;;;;4927123;29;20198;-87
2023/02/13 10:14:53;;;;;;;24.53;16.60;;;3.20;98.80;;;;;;4928645;29;20217;-87
2023/02/13 10:17:24;;;;;;;28.13;17.93;;;3.30;99.00;;;;;;4915056;29;20201;-88
2023/02/13 10:19:57;;;;;;;24.60;17.20;;;3.30;98.60;;;;;;4909117;29;20206;-87
2023/02/13 10:22:30;;;;;;;27.63;18.53;;;3.30;98.50;;;;;;4913464;29;20474;-87
2023/02/13 10:25:03;;;;;;;26.30;17.50;;;3.20;99.00;;;;;;4913388;29;20222;-87
2023/02/13 10:27:35;;;;;;;30.60;17.30;;;3.10;99.50;;;;;;4928277;29;20202;-88
2023/02/13 10:30:11;;;;;;;26.57;17.47;;;3.50;98.80;;;;;;4923211;29;20195;-89
2023/02/13 10:48:27;;;;;;;27.00;16.67;;;4.10;96.80;;;;;;5045445;23;20238;-89
2023/02/13 10:51:04;;;;;;;27.47;17.20;;;4.20;96.30;;;;;;4932541;29;20209;-90
2023/02/13 10:58:47;;;;;;;26.87;18.23;;;4.00;97.10;;;;;;5187756;23;20244;-89
2023/02/13 11:04:03;;;;;;;25.97;17.70;;;4.20;96.50;;;;;;4963808;28;20223;-89
2023/02/13 11:06:30;;;;;;;26.27;17.80;;;4.30;96.30;;;;;;4971939;28;20201;-89
2023/02/13 11:08:57;;;;;;;28.77;18.40;;;4.20;95.90;;;;;;4957812;29;20208;-91
2023/02/13 11:11:32;;;;;;;31.90;18.97;;;4.00;96.70;;;;;;4956892;28;20236;-93
2023/02/13 11:14:14;;;;;;;27.90;18.80;;;3.70;97.40;;;;;;4959032;28;20209;-93
2023/02/13 11:16:47;;;;;;;29.13;19.00;;;3.70;98.20;;;;;;4966800;23;20268;-90
2023/02/13 11:19:20;;;;;;;25.10;17.40;;;3.80;97.80;;;;;;4951434;29;20698;-90
2023/02/13 11:21:50;;;;;;;27.97;18.53;;;4.10;97.00;;;;;;4932612;29;20220;-92
2023/02/13 11:24:22;;;;;;;27.47;18.13;;;4.10;97.10;;;;;;4950767;29;20197;-90
2023/02/13 11:26:53;;;;;;;29.73;18.23;;;4.10;97.00;;;;;;4948009;29;20201;-91
2023/02/13 11:29:24;;;;;;;28.70;18.37;;;4.20;96.70;;;;;;4931987;29;20198;-88
2023/02/13 11:32:06;;;;;;;32.07;19.37;;;4.10;96.40;;;;;;4939969;29;20225;-89
2023/02/13 11:34:35;;;;;;;28.10;18.70;;;4.10;96.90;;;;;;4939721;28;20202;-89
2023/02/13 11:37:20;;;;;;;29.17;18.43;;;4.10;96.40;;;;;;4935458;29;20202;-90
2023/02/13 11:39:49;;;;;;;28.83;18.50;;;4.10;96.50;;;;;;4944446;29;20205;-90
2023/02/13 11:42:20;;;;;;;31.27;19.53;;;4.30;96.70;;;;;;4941211;29;20205;-88
2023/02/13 11:44:51;;;;;;;25.87;17.57;;;4.20;96.30;;;;;;4943481;29;20521;-86
2023/02/13 11:47:32;;;;;;;28.43;18.00;;;4.00;96.50;;;;;;4925974;29;20198;-91
2023/02/13 11:50:02;;;;;;;28.17;17.90;;;4.10;97.30;;;;;;4945389;28;20190;-89
2023/02/13 11:52:31;;;;;;;30.03;19.43;;;4.00;96.70;;;;;;4949028;29;20201;-88
2023/02/13 11:55:00;;;;;;;25.67;16.97;;;3.90;97.10;;;;;;4943147;29;20208;-93
2023/02/13 11:57:30;;;;;;;26.90;17.87;;;4.00;97.40;;;;;;4956121;29;20225;-93
2023/02/13 11:59:58;;;;;;;26.27;17.87;;;4.10;97.30;;;;;;4952269;29;20220;-90
2023/02/13 12:02:26;;;;;;;28.10;18.83;;;4.10;97.10;;;;;;4951865;29;20205;-89
2023/02/13 12:04:55;;;;;;;28.37;17.63;;;4.30;96.40;;;;;;4943908;29;20226;-89
2023/02/13 12:07:29;;;;;;;27.90;17.40;;;4.40;95.90;;;;;;4949444;29;20212;-88
2023/02/13 12:10:02;;;;;;;25.90;17.20;;;4.50;95.40;;;;;;4943760;29;20248;-91
2023/02/13 12:12:35;;;;;;;29.50;17.97;;;4.50;95.80;;;;;;4943752;29;20202;-88
2023/02/13 12:15:14;;;;;;;29.17;17.90;;;4.40;96.00;;;;;;4938704;29;20205;-86
2023/02/13 12:17:44;;;;;;;27.10;17.70;;;4.20;96.40;;;;;;4940769;28;20220;-87
2023/02/13 12:20:13;;;;;;;26.17;16.90;;;4.30;96.50;;;;;;4934655;29;20674;-85
2023/02/13 12:22:54;;;;;;;25.20;16.53;;;4.30;96.60;;;;;;4934158;29;20198;-82
2023/02/13 12:25:40;;;;;;;25.53;17.03;;;4.30;96.30;;;;;;4947090;29;20222;-89
2023/02/13 12:28:13;;;;;;;26.90;17.60;;;4.30;96.30;;;;;;4950598;29;20209;-90
2023/02/13 12:31:07;;;;;;;27.63;16.63;;;4.60;96.20;;;;;;4944599;28;20205;-92
2023/02/13 12:33:57;;;;;;;26.00;17.03;;;4.70;95.50;;;;;;4945313;28;21021;-91
2023/02/13 12:36:31;;;;;;;27.20;17.57;;;4.80;95.00;;;;;;4936472;29;20597;-90
2023/02/13 12:39:15;;;;;;;31.17;18.13;;;4.70;95.00;;;;;;4914249;29;20258;-88
2023/02/13 12:41:51;;;;;;;23.73;16.77;;;4.60;95.90;;;;;;4933849;29;20198;-93
2023/02/13 12:44:49;;;;;;;24.53;16.23;;;4.60;95.70;;;;;;4930881;29;20202;-96
2023/02/13 12:47:19;;;;;;;23.97;16.13;;;4.70;95.00;;;;;;4945271;28;20272;-94
2023/02/13 12:52:40;;;;;;;29.20;17.60;;;4.80;95.00;;;;;;4890201;29;20242;-92
2023/02/13 12:55:28;;;;;;;24.13;16.27;;;5.00;95.10;;;;;;4901932;29;20215;-94
2023/02/13 12:58:09;;;;;;;24.77;16.07;;;5.00;95.10;;;;;;4896041;29;20946;-91
2023/02/13 13:00:44;;;;;;;23.13;15.80;;;4.90;94.70;;;;;;4884615;29;20214;-92
2023/02/13 13:03:35;;;;;;;25.63;16.70;;;4.80;94.60;;;;;;4895607;29;20199;-92
2023/02/13 13:06:18;;;;;;;24.57;16.90;;;4.90;94.60;;;;;;4903450;29;20231;-93
2023/02/13 13:09:08;;;;;;;26.17;15.40;;;4.80;94.80;;;;;;4894036;29;20298;-91
2023/02/13 13:11:55;;;;;;;23.63;15.87;;;4.60;95.00;;;;;;4890834;29;20191;-93
2023/02/13 13:14:31;;;;;;;24.50;16.10;;;4.60;95.00;;;;;;4894285;29;20590;-91
2023/02/13 13:17:05;;;;;;;20.37;14.93;;;4.60;95.20;;;;;;4895840;29;20203;-90
2023/02/13 13:19:40;;;;;;;23.80;15.03;;;4.70;95.00;;;;;;4904033;29;20179;-93
2023/02/13 13:22:11;;;;;;;25.23;15.33;;;4.90;94.60;;;;;;4906111;29;20199;-93
2023/02/13 13:24:48;;;;;;;23.07;14.90;;;5.10;93.90;;;;;;4893600;29;20210;-94
2023/02/13 13:27:22;;;;;;;21.57;15.07;;;5.00;94.80;;;;;;4903404;29;20222;-93
2023/02/13 13:29:54;;;;;;;19.37;14.33;;;4.90;94.10;;;;;;4896889;29;20258;-93
2023/02/13 13:32:22;;;;;;;19.83;14.07;;;4.90;94.10;;;;;;4899300;29;20195;-93
2023/02/13 13:34:49;;;;;;;20.43;14.17;;;5.00;94.00;;;;;;4896419;29;20199;-94
2023/02/13 13:37:26;;;;;;;20.73;14.07;;;4.60;93.90;;;;;;4894607;29;20219;-93
2023/02/13 13:40:00;;;;;;;21.60;14.27;;;4.60;95.00;;;;;;4875912;29;20214;-90
2023/02/13 13:42:39;;;;;;;20.73;14.10;;;4.50;94.70;;;;;;4896614;29;20207;-91
2023/02/13 13:45:31;;;;;;;23.00;14.77;;;4.50;95.00;;;;;;4894781;29;20211;-93
2023/02/13 13:48:26;;;;;;;21.00;14.60;;;4.40;95.20;;;;;;4856768;29;20216;-93
2023/02/13 13:50:54;;;;;;;21.43;14.23;;;4.50;95.50;;;;;;4888584;29;20214;-93
2023/02/13 13:53:24;;;;;;;21.57;13.73;;;4.60;95.20;;;;;;4892832;29;20557;-93
2023/02/13 13:56:03;;;;;;;23.17;14.07;;;4.60;95.00;;;;;;4902846;29;20278;-93
2023/02/13 13:58:48;;;;;;;21.50;13.50;;;4.60;95.00;;;;;;4905091;29;20221;-95
2023/02/13 14:01:27;;;;;;;22.50;14.77;;;4.50;95.00;;;;;;4884381;29;20203;-92
2023/02/13 14:03:56;;;;;;;20.23;13.60;;;4.40;95.40;;;;;;4896983;29;20241;-92